Long Grove, Illinois
Current Conditions -  °F | °C
As of 7:52 AM on Monday 20 Oct 2014 (Local Time) from KPWK Reporting Station
Clear Clear  
Wind Chill: 48°   Ceiling: Unl
Heat Index: 48°   Visibility: 10mi
Dew Point: 44°   Wind: 3mph
Humidity: 86%   Direction: 260°W
Pressure: 29.82"   Gusts: NA
Location:  42.18°N, 88°W
Report Text: KPWK 201252Z 26003KT 10SM CLR 09/07 A2982 RMK AO2 SLP098 T00890067
Loading
Personal Weather Stations






























Interactive Weather Map
Tropical Storm Tracking
New forecast layout! Learn more

10-Day Weather Forecast

Advertisements
Track Severe Weather on mobile